sensor_id;sensor_type;location;lat;lon;timestamp;temperature;humidity
57088;DHT22;42965;52.846;6.614;2022-09-09T00:01:10;13.40;99.90
57088;DHT22;42965;52.846;6.614;2022-09-09T00:03:54;13.40;99.90
57088;DHT22;42965;52.846;6.614;2022-09-09T00:06:35;13.40;99.90
57088;DHT22;42965;52.846;6.614;2022-09-09T00:09:18;13.40;99.90
57088;DHT22;42965;52.846;6.614;2022-09-09T00:15:26;13.40;99.90
57088;DHT22;42965;52.846;6.614;2022-09-09T00:17:53;13.40;99.90
57088;DHT22;42965;52.846;6.614;2022-09-09T00:23:08;13.30;99.90
57088;DHT22;42965;52.846;6.614;2022-09-09T00:26:00;13.30;99.90
57088;DHT22;42965;52.846;6.614;2022-09-09T00:28:31;13.30;99.90
57088;DHT22;42965;52.846;6.614;2022-09-09T00:31:10;13.30;99.90
57088;DHT22;42965;52.846;6.614;2022-09-09T00:33:38;13.30;99.90
57088;DHT22;42965;52.846;6.614;2022-09-09T00:36:12;13.30;99.90
57088;DHT22;42965;52.846;6.614;2022-09-09T00:38:46;13.30;99.90
57088;DHT22;42965;52.846;6.614;2022-09-09T00:50:48;13.20;99.90
57088;DHT22;42965;52.846;6.614;2022-09-09T00:56:12;13.20;99.90
57088;DHT22;42965;52.846;6.614;2022-09-09T00:58:40;13.20;99.90
57088;DHT22;42965;52.846;6.614;2022-09-09T01:01:11;13.30;99.90
57088;DHT22;42965;52.846;6.614;2022-09-09T01:03:55;13.30;99.90
57088;DHT22;42965;52.846;6.614;2022-09-09T01:06:30;13.30;99.90
57088;DHT22;42965;52.846;6.614;2022-09-09T01:09:16;13.30;99.90
57088;DHT22;42965;52.846;6.614;2022-09-09T01:14:27;13.40;99.90
57088;DHT22;42965;52.846;6.614;2022-09-09T01:17:01;13.40;99.90
57088;DHT22;42965;52.846;6.614;2022-09-09T01:27:49;13.60;99.90
57088;DHT22;42965;52.846;6.614;2022-09-09T01:30:18;13.70;99.90
57088;DHT22;42965;52.846;6.614;2022-09-09T01:32:50;13.80;99.90
57088;DHT22;42965;52.846;6.614;2022-09-09T01:37:56;13.90;99.90
57088;DHT22;42965;52.846;6.614;2022-09-09T01:40:24;14.00;99.90
57088;DHT22;42965;52.846;6.614;2022-09-09T01:42:52;14.10;99.90
57088;DHT22;42965;52.846;6.614;2022-09-09T01:45:19;14.10;99.90
57088;DHT22;42965;52.846;6.614;2022-09-09T01:47:45;14.10;99.90
57088;DHT22;42965;52.846;6.614;2022-09-09T01:50:24;14.10;99.90
57088;DHT22;42965;52.846;6.614;2022-09-09T01:52:55;14.10;99.90
57088;DHT22;42965;52.846;6.614;2022-09-09T01:55:31;14.20;99.90
57088;DHT22;42965;52.846;6.614;2022-09-09T02:01:01;14.10;99.90
57088;DHT22;42965;52.846;6.614;2022-09-09T02:03:31;14.20;99.90
57088;DHT22;42965;52.846;6.614;2022-09-09T02:06:20;14.20;99.90
57088;DHT22;42965;52.846;6.614;2022-09-09T02:08:59;14.20;99.90
57088;DHT22;42965;52.846;6.614;2022-09-09T02:11:28;14.20;99.90
57088;DHT22;42965;52.846;6.614;2022-09-09T02:14:23;14.20;99.90
57088;DHT22;42965;52.846;6.614;2022-09-09T02:16:55;14.20;99.90
57088;DHT22;42965;52.846;6.614;2022-09-09T02:19:32;14.20;99.90
57088;DHT22;42965;52.846;6.614;2022-09-09T02:22:10;14.20;99.90
57088;DHT22;42965;52.846;6.614;2022-09-09T02:24:39;14.20;99.90
57088;DHT22;42965;52.846;6.614;2022-09-09T02:27:14;14.20;99.90
57088;DHT22;42965;52.846;6.614;2022-09-09T02:29:43;14.30;99.90
57088;DHT22;42965;52.846;6.614;2022-09-09T02:32:22;14.20;99.90
57088;DHT22;42965;52.846;6.614;2022-09-09T02:34:53;14.30;99.90
57088;DHT22;42965;52.846;6.614;2022-09-09T02:37:24;14.30;99.90
57088;DHT22;42965;52.846;6.614;2022-09-09T02:39:55;14.30;99.90
57088;DHT22;42965;52.846;6.614;2022-09-09T02:42:22;14.30;99.90
57088;DHT22;42965;52.846;6.614;2022-09-09T02:44:50;14.30;99.90
57088;DHT22;42965;52.846;6.614;2022-09-09T02:47:34;14.30;99.90
57088;DHT22;42965;52.846;6.614;2022-09-09T02:53:19;14.30;99.90
57088;DHT22;42965;52.846;6.614;2022-09-09T02:55:48;14.30;99.90
57088;DHT22;42965;52.846;6.614;2022-09-09T02:58:19;14.30;99.90
57088;DHT22;42965;52.846;6.614;2022-09-09T03:00:53;14.20;99.90
57088;DHT22;42965;52.846;6.614;2022-09-09T03:03:21;14.20;99.90
57088;DHT22;42965;52.846;6.614;2022-09-09T03:05:49;14.30;99.90
57088;DHT22;42965;52.846;6.614;2022-09-09T03:08:16;14.20;99.90
57088;DHT22;42965;52.846;6.614;2022-09-09T03:10:43;14.20;99.90
57088;DHT22;42965;52.846;6.614;2022-09-09T03:13:11;14.20;99.90
57088;DHT22;42965;52.846;6.614;2022-09-09T03:15:39;14.20;99.90
57088;DHT22;42965;52.846;6.614;2022-09-09T03:18:08;14.20;99.90
57088;DHT22;42965;52.846;6.614;2022-09-09T03:20:34;14.20;99.90
57088;DHT22;42965;52.846;6.614;2022-09-09T03:23:00;14.20;99.90
57088;DHT22;42965;52.846;6.614;2022-09-09T03:25:28;14.20;99.90
57088;DHT22;42965;52.846;6.614;2022-09-09T03:27:55;14.20;99.90
57088;DHT22;42965;52.846;6.614;2022-09-09T03:30:24;14.20;99.90
57088;DHT22;42965;52.846;6.614;2022-09-09T03:32:50;14.20;99.90
57088;DHT22;42965;52.846;6.614;2022-09-09T03:35:16;14.20;99.90
57088;DHT22;42965;52.846;6.614;2022-09-09T03:37:43;14.20;99.90
57088;DHT22;42965;52.846;6.614;2022-09-09T03:40:11;14.10;99.90
57088;DHT22;42965;52.846;6.614;2022-09-09T03:42:38;14.10;99.90
57088;DHT22;42965;52.846;6.614;2022-09-09T03:45:06;14.10;99.90
57088;DHT22;42965;52.846;6.614;2022-09-09T03:47:33;14.10;99.90
57088;DHT22;42965;52.846;6.614;2022-09-09T03:50:06;14.10;99.90
57088;DHT22;42965;52.846;6.614;2022-09-09T03:52:39;14.10;99.90
57088;DHT22;42965;52.846;6.614;2022-09-09T03:55:10;14.20;99.90
57088;DHT22;42965;52.846;6.614;2022-09-09T03:57:37;14.10;99.90
57088;DHT22;42965;52.846;6.614;2022-09-09T04:00:07;14.10;99.90
57088;DHT22;42965;52.846;6.614;2022-09-09T04:02:43;14.10;99.90
57088;DHT22;42965;52.846;6.614;2022-09-09T04:05:12;14.10;99.90
57088;DHT22;42965;52.846;6.614;2022-09-09T04:07:41;14.10;99.90
57088;DHT22;42965;52.846;6.614;2022-09-09T04:10:08;14.10;99.90
57088;DHT22;42965;52.846;6.614;2022-09-09T04:12:35;14.10;99.90
57088;DHT22;42965;52.846;6.614;2022-09-09T04:15:01;14.10;99.90
57088;DHT22;42965;52.846;6.614;2022-09-09T04:17:28;14.10;99.90
57088;DHT22;42965;52.846;6.614;2022-09-09T04:19:54;14.10;99.90
57088;DHT22;42965;52.846;6.614;2022-09-09T04:22:21;14.10;99.90
57088;DHT22;42965;52.846;6.614;2022-09-09T04:24:48;14.10;99.90
57088;DHT22;42965;52.846;6.614;2022-09-09T04:27:16;14.10;99.90
57088;DHT22;42965;52.846;6.614;2022-09-09T04:29:42;14.10;99.90
57088;DHT22;42965;52.846;6.614;2022-09-09T04:32:08;14.10;99.90
57088;DHT22;42965;52.846;6.614;2022-09-09T04:34:34;14.10;99.90
57088;DHT22;42965;52.846;6.614;2022-09-09T04:37:00;14.10;99.90
57088;DHT22;42965;52.846;6.614;2022-09-09T04:39:27;14.00;99.90
57088;DHT22;42965;52.846;6.614;2022-09-09T04:41:53;14.10;99.90
57088;DHT22;42965;52.846;6.614;2022-09-09T04:44:21;14.00;99.90
57088;DHT22;42965;52.846;6.614;2022-09-09T04:46:47;14.00;99.90
57088;DHT22;42965;52.846;6.614;2022-09-09T04:49:14;14.00;99.90
57088;DHT22;42965;52.846;6.614;2022-09-09T04:51:41;14.00;99.90
57088;DHT22;42965;52.846;6.614;2022-09-09T04:54:08;13.90;99.90
57088;DHT22;42965;52.846;6.614;2022-09-09T04:56:38;13.90;99.90
57088;DHT22;42965;52.846;6.614;2022-09-09T04:59:04;13.90;99.90
57088;DHT22;42965;52.846;6.614;2022-09-09T05:01:40;13.90;99.90
57088;DHT22;42965;52.846;6.614;2022-09-09T05:04:07;13.90;99.90
57088;DHT22;42965;52.846;6.614;2022-09-09T05:06:34;13.80;99.90
57088;DHT22;42965;52.846;6.614;2022-09-09T05:09:02;13.80;99.90
57088;DHT22;42965;52.846;6.614;2022-09-09T05:11:31;13.80;99.90
57088;DHT22;42965;52.846;6.614;2022-09-09T05:14:07;13.80;99.90
57088;DHT22;42965;52.846;6.614;2022-09-09T05:16:33;13.80;99.90
57088;DHT22;42965;52.846;6.614;2022-09-09T05:18:59;13.80;99.90
57088;DHT22;42965;52.846;6.614;2022-09-09T05:21:29;13.80;99.90
57088;DHT22;42965;52.846;6.614;2022-09-09T05:23:57;13.80;99.90
57088;DHT22;42965;52.846;6.614;2022-09-09T05:26:23;13.80;99.90
57088;DHT22;42965;52.846;6.614;2022-09-09T05:28:52;13.80;99.90
57088;DHT22;42965;52.846;6.614;2022-09-09T05:31:19;13.80;99.90
57088;DHT22;42965;52.846;6.614;2022-09-09T05:33:48;13.80;99.90
57088;DHT22;42965;52.846;6.614;2022-09-09T05:36:20;13.80;99.90
57088;DHT22;42965;52.846;6.614;2022-09-09T05:38:49;13.80;99.90
57088;DHT22;42965;52.846;6.614;2022-09-09T05:41:16;13.80;99.90
57088;DHT22;42965;52.846;6.614;2022-09-09T05:43:44;13.80;99.90
57088;DHT22;42965;52.846;6.614;2022-09-09T05:46:22;13.90;99.90
57088;DHT22;42965;52.846;6.614;2022-09-09T05:48:51;13.80;99.90
57088;DHT22;42965;52.846;6.614;2022-09-09T05:51:21;13.90;99.90
57088;DHT22;42965;52.846;6.614;2022-09-09T05:53:48;14.00;99.90
57088;DHT22;42965;52.846;6.614;2022-09-09T05:56:23;14.10;99.90
57088;DHT22;42965;52.846;6.614;2022-09-09T05:58:52;14.20;99.90
57088;DHT22;42965;52.846;6.614;2022-09-09T06:01:24;14.30;99.90
57088;DHT22;42965;52.846;6.614;2022-09-09T06:03:51;14.40;99.90
57088;DHT22;42965;52.846;6.614;2022-09-09T06:06:20;14.60;99.90
57088;DHT22;42965;52.846;6.614;2022-09-09T06:08:48;14.60;99.90
57088;DHT22;42965;52.846;6.614;2022-09-09T06:11:20;14.70;99.90
57088;DHT22;42965;52.846;6.614;2022-09-09T06:13:48;14.70;99.90
57088;DHT22;42965;52.846;6.614;2022-09-09T06:16:18;14.70;99.90
57088;DHT22;42965;52.846;6.614;2022-09-09T06:18:45;14.60;99.90
57088;DHT22;42965;52.846;6.614;2022-09-09T06:21:16;14.70;99.90
57088;DHT22;42965;52.846;6.614;2022-09-09T06:23:43;14.70;99.90
57088;DHT22;42965;52.846;6.614;2022-09-09T06:26:28;14.70;99.90
57088;DHT22;42965;52.846;6.614;2022-09-09T06:28:57;14.70;99.90
57088;DHT22;42965;52.846;6.614;2022-09-09T06:31:27;14.70;99.90
57088;DHT22;42965;52.846;6.614;2022-09-09T06:33:58;14.70;99.90
57088;DHT22;42965;52.846;6.614;2022-09-09T06:36:31;14.70;99.90
57088;DHT22;42965;52.846;6.614;2022-09-09T06:38:58;14.80;99.90
57088;DHT22;42965;52.846;6.614;2022-09-09T06:41:27;14.80;99.90
57088;DHT22;42965;52.846;6.614;2022-09-09T06:43:54;14.80;99.90
57088;DHT22;42965;52.846;6.614;2022-09-09T06:46:32;14.80;99.90
57088;DHT22;42965;52.846;6.614;2022-09-09T06:49:00;14.80;99.90
57088;DHT22;42965;52.846;6.614;2022-09-09T06:51:31;14.90;99.90
57088;DHT22;42965;52.846;6.614;2022-09-09T06:53:58;14.80;99.90
57088;DHT22;42965;52.846;6.614;2022-09-09T06:56:34;14.80;99.90
57088;DHT22;42965;52.846;6.614;2022-09-09T06:59:06;14.90;99.90
57088;DHT22;42965;52.846;6.614;2022-09-09T07:01:37;15.00;99.90
57088;DHT22;42965;52.846;6.614;2022-09-09T07:04:07;15.10;99.90
57088;DHT22;42965;52.846;6.614;2022-09-09T07:06:38;15.20;99.90
57088;DHT22;42965;52.846;6.614;2022-09-09T07:09:12;15.50;99.90
57088;DHT22;42965;52.846;6.614;2022-09-09T07:11:45;15.80;99.90
57088;DHT22;42965;52.846;6.614;2022-09-09T07:14:13;15.90;99.90
57088;DHT22;42965;52.846;6.614;2022-09-09T07:16:41;15.90;99.90
57088;DHT22;42965;52.846;6.614;2022-09-09T07:19:09;16.00;99.90
57088;DHT22;42965;52.846;6.614;2022-09-09T07:21:36;16.10;99.90
57088;DHT22;42965;52.846;6.614;2022-09-09T07:24:02;16.20;99.90
57088;DHT22;42965;52.846;6.614;2022-09-09T07:26:31;16.10;99.90
57088;DHT22;42965;52.846;6.614;2022-09-09T07:29:00;16.20;99.90
57088;DHT22;42965;52.846;6.614;2022-09-09T07:31:31;16.50;99.90
57088;DHT22;42965;52.846;6.614;2022-09-09T07:33:59;16.80;99.90
57088;DHT22;42965;52.846;6.614;2022-09-09T07:36:28;17.40;99.90
57088;DHT22;42965;52.846;6.614;2022-09-09T07:38:58;18.10;99.90
57088;DHT22;42965;52.846;6.614;2022-09-09T07:41:26;18.70;99.90
57088;DHT22;42965;52.846;6.614;2022-09-09T07:43:53;19.00;99.90
57088;DHT22;42965;52.846;6.614;2022-09-09T07:46:22;19.60;99.90
57088;DHT22;42965;52.846;6.614;2022-09-09T07:48:52;20.00;99.90
57088;DHT22;42965;52.846;6.614;2022-09-09T07:51:24;20.20;99.90
57088;DHT22;42965;52.846;6.614;2022-09-09T07:53:59;20.30;99.90
57088;DHT22;42965;52.846;6.614;2022-09-09T07:56:27;20.50;99.90
57088;DHT22;42965;52.846;6.614;2022-09-09T07:58:55;20.50;99.90
57088;DHT22;42965;52.846;6.614;2022-09-09T08:04:14;20.60;99.90
57088;DHT22;42965;52.846;6.614;2022-09-09T08:06:48;20.60;99.90
57088;DHT22;42965;52.846;6.614;2022-09-09T08:09:17;20.40;99.90
57088;DHT22;42965;52.846;6.614;2022-09-09T08:11:45;20.50;99.90
57088;DHT22;42965;52.846;6.614;2022-09-09T08:14:13;20.50;99.90
57088;DHT22;42965;52.846;6.614;2022-09-09T08:16:44;20.90;99.90
57088;DHT22;42965;52.846;6.614;2022-09-09T08:19:13;20.90;99.90
57088;DHT22;42965;52.846;6.614;2022-09-09T08:21:42;20.80;99.90
57088;DHT22;42965;52.846;6.614;2022-09-09T08:24:11;20.50;99.90
57088;DHT22;42965;52.846;6.614;2022-09-09T08:26:40;20.20;99.90
57088;DHT22;42965;52.846;6.614;2022-09-09T08:29:09;20.00;99.90
57088;DHT22;42965;52.846;6.614;2022-09-09T08:31:38;19.70;99.90
57088;DHT22;42965;52.846;6.614;2022-09-09T08:34:07;19.40;99.90
57088;DHT22;42965;52.846;6.614;2022-09-09T08:36:37;19.30;99.90
57088;DHT22;42965;52.846;6.614;2022-09-09T08:39:05;19.20;99.90
57088;DHT22;42965;52.846;6.614;2022-09-09T08:50:13;19.50;99.90
57088;DHT22;42965;52.846;6.614;2022-09-09T08:52:51;19.90;99.90
57088;DHT22;42965;52.846;6.614;2022-09-09T08:55:25;20.30;99.90
57088;DHT22;42965;52.846;6.614;2022-09-09T08:57:57;20.30;99.90
57088;DHT22;42965;52.846;6.614;2022-09-09T09:00:40;20.10;99.90
57088;DHT22;42965;52.846;6.614;2022-09-09T09:03:34;20.00;99.90
57088;DHT22;42965;52.846;6.614;2022-09-09T09:11:23;20.20;99.90
57088;DHT22;42965;52.846;6.614;2022-09-09T09:14:01;20.60;99.90
57088;DHT22;42965;52.846;6.614;2022-09-09T09:17:00;20.80;99.90
57088;DHT22;42965;52.846;6.614;2022-09-09T09:19:29;20.70;99.90
57088;DHT22;42965;52.846;6.614;2022-09-09T09:22:17;20.20;99.90
57088;DHT22;42965;52.846;6.614;2022-09-09T09:25:38;19.90;99.90
57088;DHT22;42965;52.846;6.614;2022-09-09T09:28:18;19.80;99.90
57088;DHT22;42965;52.846;6.614;2022-09-09T09:30:57;19.90;99.90
57088;DHT22;42965;52.846;6.614;2022-09-09T09:35:58;20.50;99.90
57088;DHT22;42965;52.846;6.614;2022-09-09T09:38:27;21.30;99.90
57088;DHT22;42965;52.846;6.614;2022-09-09T09:40:58;22.40;99.90
57088;DHT22;42965;52.846;6.614;2022-09-09T09:43:35;22.70;99.90
57088;DHT22;42965;52.846;6.614;2022-09-09T09:46:20;22.90;99.90
57088;DHT22;42965;52.846;6.614;2022-09-09T09:49:08;23.20;99.90
57088;DHT22;42965;52.846;6.614;2022-09-09T09:51:35;22.40;99.90
57088;DHT22;42965;52.846;6.614;2022-09-09T09:57:10;21.10;99.90
57088;DHT22;42965;52.846;6.614;2022-09-09T09:59:38;20.70;99.90
57088;DHT22;42965;52.846;6.614;2022-09-09T10:02:21;20.50;99.90
57088;DHT22;42965;52.846;6.614;2022-09-09T10:05:26;20.40;99.90
57088;DHT22;42965;52.846;6.614;2022-09-09T10:08:15;20.70;99.90
57088;DHT22;42965;52.846;6.614;2022-09-09T10:19:01;20.40;99.90
57088;DHT22;42965;52.846;6.614;2022-09-09T10:38:14;24.20;99.90
57088;DHT22;42965;52.846;6.614;2022-09-09T10:43:54;24.60;99.90
57088;DHT22;42965;52.846;6.614;2022-09-09T10:48:45;24.80;99.90
57088;DHT22;42965;52.846;6.614;2022-09-09T10:51:28;24.80;99.90
57088;DHT22;42965;52.846;6.614;2022-09-09T10:57:42;25.50;99.90
57088;DHT22;42965;52.846;6.614;2022-09-09T11:00:23;25.10;99.90
57088;DHT22;42965;52.846;6.614;2022-09-09T11:02:56;24.80;99.90
57088;DHT22;42965;52.846;6.614;2022-09-09T11:05:30;24.30;99.90
57088;DHT22;42965;52.846;6.614;2022-09-09T11:08:20;23.70;99.90
57088;DHT22;42965;52.846;6.614;2022-09-09T11:18:49;21.40;99.90
57088;DHT22;42965;52.846;6.614;2022-09-09T11:21:37;21.50;99.90
57088;DHT22;42965;52.846;6.614;2022-09-09T11:24:11;21.50;99.90
57088;DHT22;42965;52.846;6.614;2022-09-09T11:26:41;21.50;99.90
57088;DHT22;42965;52.846;6.614;2022-09-09T11:32:53;21.90;99.90
57088;DHT22;42965;52.846;6.614;2022-09-09T11:35:47;22.00;99.90
57088;DHT22;42965;52.846;6.614;2022-09-09T11:38:27;21.60;99.90
57088;DHT22;42965;52.846;6.614;2022-09-09T11:41:02;21.10;99.90
57088;DHT22;42965;52.846;6.614;2022-09-09T11:46:05;20.60;99.90
57088;DHT22;42965;52.846;6.614;2022-09-09T11:48:44;20.50;99.90
57088;DHT22;42965;52.846;6.614;2022-09-09T11:51:34;20.30;99.90
57088;DHT22;42965;52.846;6.614;2022-09-09T11:54:25;20.50;99.90
57088;DHT22;42965;52.846;6.614;2022-09-09T11:56:49;20.80;99.90
57088;DHT22;42965;52.846;6.614;2022-09-09T11:59:27;21.00;99.90
57088;DHT22;42965;52.846;6.614;2022-09-09T12:02:23;21.10;99.90
57088;DHT22;42965;52.846;6.614;2022-09-09T12:05:05;21.40;99.90
57088;DHT22;42965;52.846;6.614;2022-09-09T12:09:59;22.50;99.90
57088;DHT22;42965;52.846;6.614;2022-09-09T12:12:32;22.70;99.90
57088;DHT22;42965;52.846;6.614;2022-09-09T12:17:43;24.10;99.90
57088;DHT22;42965;52.846;6.614;2022-09-09T12:20:17;23.70;99.90
57088;DHT22;42965;52.846;6.614;2022-09-09T12:28:17;22.30;99.90
57088;DHT22;42965;52.846;6.614;2022-09-09T12:31:08;22.30;99.90
57088;DHT22;42965;52.846;6.614;2022-09-09T12:33:36;22.30;99.90
57088;DHT22;42965;52.846;6.614;2022-09-09T12:36:04;21.90;99.90
57088;DHT22;42965;52.846;6.614;2022-09-09T12:38:35;22.00;99.90
57088;DHT22;42965;52.846;6.614;2022-09-09T12:41:02;22.20;99.90
57088;DHT22;42965;52.846;6.614;2022-09-09T12:43:29;22.60;99.90
57088;DHT22;42965;52.846;6.614;2022-09-09T12:46:01;23.00;99.90
57088;DHT22;42965;52.846;6.614;2022-09-09T12:48:36;22.60;99.90
57088;DHT22;42965;52.846;6.614;2022-09-09T12:51:03;22.00;99.90
57088;DHT22;42965;52.846;6.614;2022-09-09T12:53:37;21.80;99.90
57088;DHT22;42965;52.846;6.614;2022-09-09T12:56:07;21.50;99.90
57088;DHT22;42965;52.846;6.614;2022-09-09T12:58:35;21.00;99.90
57088;DHT22;42965;52.846;6.614;2022-09-09T13:01:03;20.40;99.90
57088;DHT22;42965;52.846;6.614;2022-09-09T13:03:42;20.20;99.90
57088;DHT22;42965;52.846;6.614;2022-09-09T13:06:16;20.60;99.90
57088;DHT22;42965;52.846;6.614;2022-09-09T13:08:44;21.50;99.90
57088;DHT22;42965;52.846;6.614;2022-09-09T13:11:15;22.00;99.90
57088;DHT22;42965;52.846;6.614;2022-09-09T13:13:50;22.00;99.90
57088;DHT22;42965;52.846;6.614;2022-09-09T13:16:28;21.60;99.90
57088;DHT22;42965;52.846;6.614;2022-09-09T13:19:14;21.60;99.90
57088;DHT22;42965;52.846;6.614;2022-09-09T13:21:42;22.60;99.90
57088;DHT22;42965;52.846;6.614;2022-09-09T13:24:28;23.00;99.90
57088;DHT22;42965;52.846;6.614;2022-09-09T13:27:03;23.20;99.90
57088;DHT22;42965;52.846;6.614;2022-09-09T13:29:31;23.00;99.90
57088;DHT22;42965;52.846;6.614;2022-09-09T13:32:16;22.70;99.90
57088;DHT22;42965;52.846;6.614;2022-09-09T13:34:55;22.50;99.90
57088;DHT22;42965;52.846;6.614;2022-09-09T13:37:38;21.90;99.90
57088;DHT22;42965;52.846;6.614;2022-09-09T13:40:19;21.00;99.90
57088;DHT22;42965;52.846;6.614;2022-09-09T13:42:50;20.30;99.90
57088;DHT22;42965;52.846;6.614;2022-09-09T13:45:22;19.90;99.90
57088;DHT22;42965;52.846;6.614;2022-09-09T13:47:50;20.00;99.90
57088;DHT22;42965;52.846;6.614;2022-09-09T13:50:25;19.90;99.90
57088;DHT22;42965;52.846;6.614;2022-09-09T13:52:53;20.00;99.90
57088;DHT22;42965;52.846;6.614;2022-09-09T13:55:22;19.90;99.90
57088;DHT22;42965;52.846;6.614;2022-09-09T13:57:53;19.80;99.90
57088;DHT22;42965;52.846;6.614;2022-09-09T14:00:21;20.80;99.90
57088;DHT22;42965;52.846;6.614;2022-09-09T14:02:48;21.50;99.90
57088;DHT22;42965;52.846;6.614;2022-09-09T14:05:17;21.80;99.90
57088;DHT22;42965;52.846;6.614;2022-09-09T14:07:44;22.10;99.90
57088;DHT22;42965;52.846;6.614;2022-09-09T14:10:11;22.60;99.90
57088;DHT22;42965;52.846;6.614;2022-09-09T14:12:38;23.00;99.90
57088;DHT22;42965;52.846;6.614;2022-09-09T14:15:06;22.40;99.90
57088;DHT22;42965;52.846;6.614;2022-09-09T14:17:33;22.00;99.90
57088;DHT22;42965;52.846;6.614;2022-09-09T14:20:02;21.90;99.90
57088;DHT22;42965;52.846;6.614;2022-09-09T14:22:28;22.60;99.90
57088;DHT22;42965;52.846;6.614;2022-09-09T14:24:54;23.90;99.90
57088;DHT22;42965;52.846;6.614;2022-09-09T14:27:20;24.90;99.90
57088;DHT22;42965;52.846;6.614;2022-09-09T14:29:47;25.40;99.90
57088;DHT22;42965;52.846;6.614;2022-09-09T14:32:13;25.60;99.90
57088;DHT22;42965;52.846;6.614;2022-09-09T14:34:39;25.50;99.90
57088;DHT22;42965;52.846;6.614;2022-09-09T14:37:06;25.30;99.90
57088;DHT22;42965;52.846;6.614;2022-09-09T14:39:32;25.10;99.90
57088;DHT22;42965;52.846;6.614;2022-09-09T14:41:58;25.30;99.90
57088;DHT22;42965;52.846;6.614;2022-09-09T14:44:25;24.90;99.90
57088;DHT22;42965;52.846;6.614;2022-09-09T14:46:51;24.50;99.90
57088;DHT22;42965;52.846;6.614;2022-09-09T14:49:17;25.10;99.90
57088;DHT22;42965;52.846;6.614;2022-09-09T14:51:43;25.00;99.90
57088;DHT22;42965;52.846;6.614;2022-09-09T14:54:09;23.90;99.90
57088;DHT22;42965;52.846;6.614;2022-09-09T14:56:36;23.20;99.90
57088;DHT22;42965;52.846;6.614;2022-09-09T14:59:03;22.70;99.90
57088;DHT22;42965;52.846;6.614;2022-09-09T15:01:31;23.00;99.90
57088;DHT22;42965;52.846;6.614;2022-09-09T15:04:03;23.40;99.90
57088;DHT22;42965;52.846;6.614;2022-09-09T15:06:32;24.20;99.90
57088;DHT22;42965;52.846;6.614;2022-09-09T15:08:59;24.60;99.90
57088;DHT22;42965;52.846;6.614;2022-09-09T15:11:30;24.80;99.90
57088;DHT22;42965;52.846;6.614;2022-09-09T15:13:58;24.60;99.90
57088;DHT22;42965;52.846;6.614;2022-09-09T15:16:26;24.60;99.90
57088;DHT22;42965;52.846;6.614;2022-09-09T15:18:56;23.90;99.90
57088;DHT22;42965;52.846;6.614;2022-09-09T15:21:25;23.30;99.90
57088;DHT22;42965;52.846;6.614;2022-09-09T15:23:51;22.80;99.90
57088;DHT22;42965;52.846;6.614;2022-09-09T15:26:18;22.40;99.90
57088;DHT22;42965;52.846;6.614;2022-09-09T15:28:46;22.00;99.90
57088;DHT22;42965;52.846;6.614;2022-09-09T15:31:18;21.80;99.90
57088;DHT22;42965;52.846;6.614;2022-09-09T15:33:58;21.60;99.90
57088;DHT22;42965;52.846;6.614;2022-09-09T15:36:30;21.50;99.90
57088;DHT22;42965;52.846;6.614;2022-09-09T15:38:58;21.20;99.90
57088;DHT22;42965;52.846;6.614;2022-09-09T15:41:25;20.80;99.90
57088;DHT22;42965;52.846;6.614;2022-09-09T15:43:54;20.70;99.90
57088;DHT22;42965;52.846;6.614;2022-09-09T15:48:52;20.40;99.90
57088;DHT22;42965;52.846;6.614;2022-09-09T15:51:19;20.20;99.90
57088;DHT22;42965;52.846;6.614;2022-09-09T15:53:45;20.20;99.90
57088;DHT22;42965;52.846;6.614;2022-09-09T15:56:11;20.10;99.90
57088;DHT22;42965;52.846;6.614;2022-09-09T15:58:37;20.00;99.90
57088;DHT22;42965;52.846;6.614;2022-09-09T16:01:07;19.90;99.90
57088;DHT22;42965;52.846;6.614;2022-09-09T16:03:38;19.70;99.90
57088;DHT22;42965;52.846;6.614;2022-09-09T16:06:05;19.60;99.90
57088;DHT22;42965;52.846;6.614;2022-09-09T16:08:35;19.50;99.90
57088;DHT22;42965;52.846;6.614;2022-09-09T16:11:11;19.60;99.90
57088;DHT22;42965;52.846;6.614;2022-09-09T16:13:38;19.60;99.90
57088;DHT22;42965;52.846;6.614;2022-09-09T16:16:06;19.60;99.90
57088;DHT22;42965;52.846;6.614;2022-09-09T16:18:43;19.80;99.90
57088;DHT22;42965;52.846;6.614;2022-09-09T16:21:17;19.80;99.90
57088;DHT22;42965;52.846;6.614;2022-09-09T16:23:44;19.80;99.90
57088;DHT22;42965;52.846;6.614;2022-09-09T16:26:15;19.90;99.90
57088;DHT22;42965;52.846;6.614;2022-09-09T16:28:41;19.80;99.90
57088;DHT22;42965;52.846;6.614;2022-09-09T16:31:13;19.80;99.90
57088;DHT22;42965;52.846;6.614;2022-09-09T16:33:43;19.80;99.90
57088;DHT22;42965;52.846;6.614;2022-09-09T16:36:11;19.70;99.90
57088;DHT22;42965;52.846;6.614;2022-09-09T16:38:38;19.80;99.90
57088;DHT22;42965;52.846;6.614;2022-09-09T16:41:06;19.50;99.90
57088;DHT22;42965;52.846;6.614;2022-09-09T16:43:36;19.50;99.90
57088;DHT22;42965;52.846;6.614;2022-09-09T16:46:03;19.40;99.90
57088;DHT22;42965;52.846;6.614;2022-09-09T16:48:35;19.40;99.90
57088;DHT22;42965;52.846;6.614;2022-09-09T16:51:06;19.30;99.90
57088;DHT22;42965;52.846;6.614;2022-09-09T16:53:33;19.30;99.90
57088;DHT22;42965;52.846;6.614;2022-09-09T16:56:09;19.20;99.90
57088;DHT22;42965;52.846;6.614;2022-09-09T16:58:35;19.00;99.90
57088;DHT22;42965;52.846;6.614;2022-09-09T17:01:03;19.00;99.90
57088;DHT22;42965;52.846;6.614;2022-09-09T17:03:30;19.00;99.90
57088;DHT22;42965;52.846;6.614;2022-09-09T17:05:58;19.00;99.90
57088;DHT22;42965;52.846;6.614;2022-09-09T17:08:30;18.90;99.90
57088;DHT22;42965;52.846;6.614;2022-09-09T17:10:57;18.90;99.90
57088;DHT22;42965;52.846;6.614;2022-09-09T17:13:25;18.80;99.90
57088;DHT22;42965;52.846;6.614;2022-09-09T17:15:52;18.70;99.90
57088;DHT22;42965;52.846;6.614;2022-09-09T17:18:18;18.80;99.90
57088;DHT22;42965;52.846;6.614;2022-09-09T17:20:44;18.70;99.90
57088;DHT22;42965;52.846;6.614;2022-09-09T17:23:11;18.60;99.90
57088;DHT22;42965;52.846;6.614;2022-09-09T17:25:41;18.60;99.90
57088;DHT22;42965;52.846;6.614;2022-09-09T17:28:07;18.50;99.90
57088;DHT22;42965;52.846;6.614;2022-09-09T17:30:34;18.40;99.90
57088;DHT22;42965;52.846;6.614;2022-09-09T17:33:01;18.40;99.90
57088;DHT22;42965;52.846;6.614;2022-09-09T17:35:27;18.40;99.90
57088;DHT22;42965;52.846;6.614;2022-09-09T17:37:53;18.40;99.90
57088;DHT22;42965;52.846;6.614;2022-09-09T17:40:20;18.50;99.90
57088;DHT22;42965;52.846;6.614;2022-09-09T17:42:47;18.40;99.90
57088;DHT22;42965;52.846;6.614;2022-09-09T17:45:13;18.40;99.90
57088;DHT22;42965;52.846;6.614;2022-09-09T17:47:42;18.30;99.90
57088;DHT22;42965;52.846;6.614;2022-09-09T17:50:10;18.30;99.90
57088;DHT22;42965;52.846;6.614;2022-09-09T17:52:41;18.30;99.90
57088;DHT22;42965;52.846;6.614;2022-09-09T17:55:08;18.20;99.90
57088;DHT22;42965;52.846;6.614;2022-09-09T17:57:37;18.20;99.90